sensor_id;sensor_type;location;lat;lon;timestamp;P1;durP1;ratioP1;P2;durP2;ratioP2
16075;SDS011;8142;48.242;11.644;2023-07-24T00:00:48;11.83;;;7.27;;
16075;SDS011;8142;48.242;11.644;2023-07-24T00:03:13;12.63;;;7.97;;
16075;SDS011;8142;48.242;11.644;2023-07-24T00:05:39;16.03;;;7.60;;
16075;SDS011;8142;48.242;11.644;2023-07-24T00:08:05;12.37;;;8.00;;
16075;SDS011;8142;48.242;11.644;2023-07-24T00:10:32;14.97;;;7.90;;
16075;SDS011;8142;48.242;11.644;2023-07-24T00:12:58;11.53;;;7.80;;
16075;SDS011;8142;48.242;11.644;2023-07-24T00:15:24;11.83;;;7.83;;
16075;SDS011;8142;48.242;11.644;2023-07-24T00:17:49;15.17;;;8.23;;
16075;SDS011;8142;48.242;11.644;2023-07-24T00:20:15;16.17;;;8.27;;
16075;SDS011;8142;48.242;11.644;2023-07-24T00:22:41;13.80;;;7.97;;
16075;SDS011;8142;48.242;11.644;2023-07-24T00:25:07;12.67;;;7.70;;
16075;SDS011;8142;48.242;11.644;2023-07-24T00:27:34;12.47;;;7.87;;
16075;SDS011;8142;48.242;11.644;2023-07-24T00:30:00;12.43;;;7.77;;
16075;SDS011;8142;48.242;11.644;2023-07-24T00:32:28;12.27;;;8.23;;
16075;SDS011;8142;48.242;11.644;2023-07-24T00:34:54;13.67;;;7.90;;
16075;SDS011;8142;48.242;11.644;2023-07-24T00:37:20;13.20;;;8.13;;
16075;SDS011;8142;48.242;11.644;2023-07-24T00:39:45;12.57;;;7.70;;
16075;SDS011;8142;48.242;11.644;2023-07-24T00:42:11;14.37;;;7.83;;
16075;SDS011;8142;48.242;11.644;2023-07-24T00:44:37;15.13;;;8.30;;
16075;SDS011;8142;48.242;11.644;2023-07-24T00:47:04;12.10;;;8.10;;
16075;SDS011;8142;48.242;11.644;2023-07-24T00:49:30;13.53;;;8.00;;
16075;SDS011;8142;48.242;11.644;2023-07-24T00:51:56;13.13;;;7.70;;
16075;SDS011;8142;48.242;11.644;2023-07-24T00:54:22;14.07;;;8.27;;
16075;SDS011;8142;48.242;11.644;2023-07-24T00:56:49;11.13;;;7.50;;
16075;SDS011;8142;48.242;11.644;2023-07-24T00:59:15;10.57;;;7.53;;
16075;SDS011;8142;48.242;11.644;2023-07-24T01:01:42;12.57;;;8.03;;
16075;SDS011;8142;48.242;11.644;2023-07-24T01:04:09;11.03;;;7.33;;
16075;SDS011;8142;48.242;11.644;2023-07-24T01:06:35;12.73;;;7.87;;
16075;SDS011;8142;48.242;11.644;2023-07-24T01:09:01;12.80;;;7.77;;
16075;SDS011;8142;48.242;11.644;2023-07-24T01:11:33;11.87;;;7.57;;
16075;SDS011;8142;48.242;11.644;2023-07-24T01:14:36;12.87;;;7.57;;
16075;SDS011;8142;48.242;11.644;2023-07-24T01:17:10;12.60;;;7.37;;
16075;SDS011;8142;48.242;11.644;2023-07-24T01:19:42;12.33;;;7.63;;
16075;SDS011;8142;48.242;11.644;2023-07-24T01:27:40;12.40;;;8.00;;
16075;SDS011;8142;48.242;11.644;2023-07-24T01:30:10;14.77;;;7.47;;
16075;SDS011;8142;48.242;11.644;2023-07-24T01:32:37;12.67;;;7.67;;
16075;SDS011;8142;48.242;11.644;2023-07-24T01:35:04;13.23;;;8.00;;
16075;SDS011;8142;48.242;11.644;2023-07-24T01:37:30;18.57;;;7.83;;
16075;SDS011;8142;48.242;11.644;2023-07-24T01:39:57;14.27;;;8.27;;
16075;SDS011;8142;48.242;11.644;2023-07-24T01:42:23;12.77;;;7.83;;
16075;SDS011;8142;48.242;11.644;2023-07-24T01:44:51;13.13;;;7.80;;
16075;SDS011;8142;48.242;11.644;2023-07-24T01:47:17;13.70;;;7.90;;
16075;SDS011;8142;48.242;11.644;2023-07-24T01:49:43;11.17;;;7.83;;
16075;SDS011;8142;48.242;11.644;2023-07-24T01:52:09;13.03;;;7.90;;
16075;SDS011;8142;48.242;11.644;2023-07-24T01:54:35;12.73;;;7.77;;
16075;SDS011;8142;48.242;11.644;2023-07-24T01:57:01;12.23;;;8.00;;
16075;SDS011;8142;48.242;11.644;2023-07-24T01:59:27;11.27;;;6.93;;
16075;SDS011;8142;48.242;11.644;2023-07-24T02:01:52;12.07;;;7.93;;
16075;SDS011;8142;48.242;11.644;2023-07-24T02:04:18;12.27;;;7.83;;
16075;SDS011;8142;48.242;11.644;2023-07-24T02:06:50;13.07;;;7.90;;
16075;SDS011;8142;48.242;11.644;2023-07-24T02:09:17;13.03;;;7.87;;
16075;SDS011;8142;48.242;11.644;2023-07-24T02:11:43;12.37;;;8.20;;
16075;SDS011;8142;48.242;11.644;2023-07-24T02:14:09;11.47;;;7.50;;
16075;SDS011;8142;48.242;11.644;2023-07-24T02:16:36;12.30;;;8.00;;
16075;SDS011;8142;48.242;11.644;2023-07-24T02:19:02;12.43;;;7.73;;
16075;SDS011;8142;48.242;11.644;2023-07-24T02:21:28;13.83;;;8.10;;
16075;SDS011;8142;48.242;11.644;2023-07-24T02:23:54;13.40;;;7.80;;
16075;SDS011;8142;48.242;11.644;2023-07-24T02:26:20;13.53;;;8.10;;
16075;SDS011;8142;48.242;11.644;2023-07-24T02:28:46;12.80;;;7.83;;
16075;SDS011;8142;48.242;11.644;2023-07-24T02:31:11;13.60;;;7.50;;
16075;SDS011;8142;48.242;11.644;2023-07-24T02:33:37;12.10;;;7.93;;
16075;SDS011;8142;48.242;11.644;2023-07-24T02:36:03;13.33;;;8.63;;
16075;SDS011;8142;48.242;11.644;2023-07-24T02:38:29;14.73;;;8.50;;
16075;SDS011;8142;48.242;11.644;2023-07-24T02:40:55;12.40;;;7.60;;
16075;SDS011;8142;48.242;11.644;2023-07-24T02:43:21;13.50;;;8.47;;
16075;SDS011;8142;48.242;11.644;2023-07-24T02:45:47;14.17;;;8.50;;
16075;SDS011;8142;48.242;11.644;2023-07-24T02:48:13;12.90;;;7.60;;
16075;SDS011;8142;48.242;11.644;2023-07-24T02:50:38;13.53;;;8.17;;
16075;SDS011;8142;48.242;11.644;2023-07-24T02:53:04;14.77;;;7.73;;
16075;SDS011;8142;48.242;11.644;2023-07-24T02:55:30;11.93;;;8.20;;
16075;SDS011;8142;48.242;11.644;2023-07-24T02:57:56;11.87;;;7.53;;
16075;SDS011;8142;48.242;11.644;2023-07-24T03:00:22;14.10;;;8.20;;
16075;SDS011;8142;48.242;11.644;2023-07-24T03:02:48;13.50;;;7.63;;
16075;SDS011;8142;48.242;11.644;2023-07-24T03:05:14;9.90;;;6.93;;
16075;SDS011;8142;48.242;11.644;2023-07-24T03:07:40;10.37;;;7.10;;
16075;SDS011;8142;48.242;11.644;2023-07-24T03:10:06;13.33;;;7.50;;
16075;SDS011;8142;48.242;11.644;2023-07-24T03:12:33;13.80;;;7.80;;
16075;SDS011;8142;48.242;11.644;2023-07-24T03:14:58;13.97;;;8.40;;
16075;SDS011;8142;48.242;11.644;2023-07-24T03:17:24;14.37;;;8.83;;
16075;SDS011;8142;48.242;11.644;2023-07-24T03:19:50;18.67;;;9.07;;
16075;SDS011;8142;48.242;11.644;2023-07-24T03:22:16;20.33;;;9.10;;
16075;SDS011;8142;48.242;11.644;2023-07-24T03:24:42;15.03;;;9.27;;
16075;SDS011;8142;48.242;11.644;2023-07-24T03:27:08;14.97;;;9.30;;
16075;SDS011;8142;48.242;11.644;2023-07-24T03:29:33;13.13;;;8.27;;
16075;SDS011;8142;48.242;11.644;2023-07-24T03:31:59;17.83;;;9.53;;
16075;SDS011;8142;48.242;11.644;2023-07-24T03:34:25;16.50;;;8.97;;
16075;SDS011;8142;48.242;11.644;2023-07-24T03:36:51;16.37;;;9.60;;
16075;SDS011;8142;48.242;11.644;2023-07-24T03:39:17;13.30;;;9.13;;
16075;SDS011;8142;48.242;11.644;2023-07-24T03:41:43;15.67;;;9.43;;
16075;SDS011;8142;48.242;11.644;2023-07-24T03:44:08;15.87;;;9.60;;
16075;SDS011;8142;48.242;11.644;2023-07-24T03:46:34;15.17;;;9.00;;
16075;SDS011;8142;48.242;11.644;2023-07-24T03:49:00;17.10;;;9.37;;
16075;SDS011;8142;48.242;11.644;2023-07-24T03:51:26;14.43;;;9.43;;
16075;SDS011;8142;48.242;11.644;2023-07-24T03:53:52;15.53;;;9.20;;
16075;SDS011;8142;48.242;11.644;2023-07-24T03:56:18;14.50;;;8.80;;
16075;SDS011;8142;48.242;11.644;2023-07-24T03:58:44;16.90;;;9.30;;
16075;SDS011;8142;48.242;11.644;2023-07-24T04:01:10;14.37;;;8.83;;
16075;SDS011;8142;48.242;11.644;2023-07-24T04:03:36;14.53;;;8.90;;
16075;SDS011;8142;48.242;11.644;2023-07-24T04:06:02;15.30;;;9.03;;
16075;SDS011;8142;48.242;11.644;2023-07-24T04:08:28;16.33;;;9.50;;
16075;SDS011;8142;48.242;11.644;2023-07-24T04:10:54;15.23;;;9.13;;
16075;SDS011;8142;48.242;11.644;2023-07-24T04:13:23;14.53;;;8.53;;
16075;SDS011;8142;48.242;11.644;2023-07-24T04:15:48;15.63;;;9.07;;
16075;SDS011;8142;48.242;11.644;2023-07-24T04:18:15;14.10;;;9.43;;
16075;SDS011;8142;48.242;11.644;2023-07-24T04:20:41;15.80;;;9.63;;
16075;SDS011;8142;48.242;11.644;2023-07-24T04:23:07;14.07;;;9.33;;
16075;SDS011;8142;48.242;11.644;2023-07-24T04:25:33;13.23;;;9.13;;
16075;SDS011;8142;48.242;11.644;2023-07-24T04:27:59;14.93;;;9.67;;
16075;SDS011;8142;48.242;11.644;2023-07-24T04:30:25;18.03;;;9.60;;
16075;SDS011;8142;48.242;11.644;2023-07-24T04:32:51;14.67;;;9.90;;
16075;SDS011;8142;48.242;11.644;2023-07-24T04:35:16;13.57;;;9.10;;
16075;SDS011;8142;48.242;11.644;2023-07-24T04:37:42;12.93;;;8.73;;
16075;SDS011;8142;48.242;11.644;2023-07-24T04:40:08;13.27;;;9.00;;
16075;SDS011;8142;48.242;11.644;2023-07-24T04:42:35;13.57;;;8.80;;
16075;SDS011;8142;48.242;11.644;2023-07-24T04:45:01;13.20;;;8.70;;
16075;SDS011;8142;48.242;11.644;2023-07-24T04:47:28;16.07;;;9.70;;
16075;SDS011;8142;48.242;11.644;2023-07-24T04:49:54;14.10;;;8.80;;
16075;SDS011;8142;48.242;11.644;2023-07-24T04:52:20;13.73;;;9.00;;
16075;SDS011;8142;48.242;11.644;2023-07-24T04:54:46;13.30;;;8.50;;
16075;SDS011;8142;48.242;11.644;2023-07-24T04:57:12;14.07;;;8.80;;
16075;SDS011;8142;48.242;11.644;2023-07-24T04:59:38;12.60;;;8.53;;
16075;SDS011;8142;48.242;11.644;2023-07-24T05:02:04;14.63;;;8.90;;
16075;SDS011;8142;48.242;11.644;2023-07-24T05:04:29;14.43;;;8.90;;
16075;SDS011;8142;48.242;11.644;2023-07-24T05:06:55;15.50;;;9.50;;
16075;SDS011;8142;48.242;11.644;2023-07-24T05:09:21;14.43;;;8.97;;
16075;SDS011;8142;48.242;11.644;2023-07-24T05:11:47;16.10;;;9.57;;
16075;SDS011;8142;48.242;11.644;2023-07-24T05:14:13;15.27;;;9.30;;
16075;SDS011;8142;48.242;11.644;2023-07-24T05:16:38;12.43;;;9.03;;
16075;SDS011;8142;48.242;11.644;2023-07-24T05:19:04;14.47;;;9.20;;
16075;SDS011;8142;48.242;11.644;2023-07-24T05:21:30;14.20;;;9.43;;
16075;SDS011;8142;48.242;11.644;2023-07-24T05:23:56;14.73;;;9.67;;
16075;SDS011;8142;48.242;11.644;2023-07-24T05:26:22;15.00;;;9.70;;
16075;SDS011;8142;48.242;11.644;2023-07-24T05:28:48;16.90;;;9.40;;
16075;SDS011;8142;48.242;11.644;2023-07-24T05:31:13;13.90;;;9.17;;
16075;SDS011;8142;48.242;11.644;2023-07-24T05:33:39;13.70;;;8.63;;
16075;SDS011;8142;48.242;11.644;2023-07-24T05:36:05;15.90;;;10.00;;
16075;SDS011;8142;48.242;11.644;2023-07-24T05:38:31;15.20;;;9.60;;
16075;SDS011;8142;48.242;11.644;2023-07-24T05:41:01;14.77;;;9.67;;
16075;SDS011;8142;48.242;11.644;2023-07-24T05:43:28;13.80;;;9.57;;
16075;SDS011;8142;48.242;11.644;2023-07-24T05:45:55;15.30;;;9.40;;
16075;SDS011;8142;48.242;11.644;2023-07-24T05:48:22;13.77;;;9.67;;
16075;SDS011;8142;48.242;11.644;2023-07-24T05:50:48;14.47;;;8.97;;
16075;SDS011;8142;48.242;11.644;2023-07-24T05:53:14;14.97;;;9.80;;
16075;SDS011;8142;48.242;11.644;2023-07-24T05:55:41;14.83;;;9.50;;
16075;SDS011;8142;48.242;11.644;2023-07-24T05:58:08;13.73;;;9.23;;
16075;SDS011;8142;48.242;11.644;2023-07-24T06:00:34;12.90;;;9.37;;
16075;SDS011;8142;48.242;11.644;2023-07-24T06:03:01;14.03;;;9.47;;
16075;SDS011;8142;48.242;11.644;2023-07-24T06:05:30;13.23;;;9.10;;
16075;SDS011;8142;48.242;11.644;2023-07-24T06:07:56;12.53;;;8.80;;
16075;SDS011;8142;48.242;11.644;2023-07-24T06:10:22;13.40;;;8.97;;
16075;SDS011;8142;48.242;11.644;2023-07-24T06:12:48;12.13;;;8.20;;
16075;SDS011;8142;48.242;11.644;2023-07-24T06:15:13;13.90;;;8.57;;
16075;SDS011;8142;48.242;11.644;2023-07-24T06:17:39;10.63;;;7.27;;
16075;SDS011;8142;48.242;11.644;2023-07-24T06:20:06;13.10;;;7.87;;
16075;SDS011;8142;48.242;11.644;2023-07-24T06:22:32;11.03;;;8.10;;
16075;SDS011;8142;48.242;11.644;2023-07-24T06:24:58;12.53;;;7.67;;
16075;SDS011;8142;48.242;11.644;2023-07-24T06:27:24;11.20;;;8.00;;
16075;SDS011;8142;48.242;11.644;2023-07-24T06:29:49;12.53;;;8.50;;
16075;SDS011;8142;48.242;11.644;2023-07-24T06:32:15;12.97;;;8.60;;
16075;SDS011;8142;48.242;11.644;2023-07-24T06:34:41;12.90;;;8.63;;
16075;SDS011;8142;48.242;11.644;2023-07-24T06:37:07;15.97;;;9.50;;
16075;SDS011;8142;48.242;11.644;2023-07-24T06:39:33;12.93;;;9.07;;
16075;SDS011;8142;48.242;11.644;2023-07-24T06:41:59;11.87;;;8.40;;
16075;SDS011;8142;48.242;11.644;2023-07-24T06:44:25;17.33;;;10.33;;
16075;SDS011;8142;48.242;11.644;2023-07-24T06:46:51;14.33;;;9.00;;
16075;SDS011;8142;48.242;11.644;2023-07-24T06:49:16;21.10;;;11.07;;
16075;SDS011;8142;48.242;11.644;2023-07-24T06:51:42;16.43;;;10.03;;
16075;SDS011;8142;48.242;11.644;2023-07-24T06:54:08;16.13;;;9.50;;
16075;SDS011;8142;48.242;11.644;2023-07-24T06:56:34;14.37;;;9.47;;
16075;SDS011;8142;48.242;11.644;2023-07-24T06:59:00;16.30;;;9.57;;
16075;SDS011;8142;48.242;11.644;2023-07-24T07:01:26;13.20;;;8.67;;
16075;SDS011;8142;48.242;11.644;2023-07-24T07:03:51;12.23;;;8.60;;
16075;SDS011;8142;48.242;11.644;2023-07-24T07:06:17;14.70;;;9.47;;
16075;SDS011;8142;48.242;11.644;2023-07-24T07:08:43;13.13;;;8.90;;
16075;SDS011;8142;48.242;11.644;2023-07-24T07:11:09;12.83;;;9.03;;
16075;SDS011;8142;48.242;11.644;2023-07-24T07:13:35;10.93;;;8.33;;
16075;SDS011;8142;48.242;11.644;2023-07-24T07:16:01;11.33;;;8.37;;
16075;SDS011;8142;48.242;11.644;2023-07-24T07:18:27;10.40;;;7.80;;
16075;SDS011;8142;48.242;11.644;2023-07-24T07:20:53;12.47;;;8.80;;
16075;SDS011;8142;48.242;11.644;2023-07-24T07:23:19;12.67;;;8.87;;
16075;SDS011;8142;48.242;11.644;2023-07-24T07:25:46;10.90;;;8.53;;
16075;SDS011;8142;48.242;11.644;2023-07-24T07:28:12;11.07;;;7.93;;
16075;SDS011;8142;48.242;11.644;2023-07-24T07:30:39;12.63;;;8.47;;
16075;SDS011;8142;48.242;11.644;2023-07-24T07:33:05;12.70;;;8.40;;
16075;SDS011;8142;48.242;11.644;2023-07-24T07:35:31;12.67;;;8.37;;
16075;SDS011;8142;48.242;11.644;2023-07-24T07:37:58;12.40;;;8.83;;
16075;SDS011;8142;48.242;11.644;2023-07-24T07:40:24;12.37;;;7.27;;
16075;SDS011;8142;48.242;11.644;2023-07-24T07:42:55;13.90;;;7.47;;
16075;SDS011;8142;48.242;11.644;2023-07-24T07:45:22;9.53;;;6.63;;
16075;SDS011;8142;48.242;11.644;2023-07-24T07:47:48;11.93;;;7.73;;
16075;SDS011;8142;48.242;11.644;2023-07-24T07:50:14;12.33;;;7.67;;
16075;SDS011;8142;48.242;11.644;2023-07-24T07:52:41;9.97;;;7.37;;
16075;SDS011;8142;48.242;11.644;2023-07-24T07:55:07;12.80;;;7.50;;
16075;SDS011;8142;48.242;11.644;2023-07-24T07:57:36;13.63;;;8.57;;
16075;SDS011;8142;48.242;11.644;2023-07-24T08:00:03;12.53;;;8.17;;
16075;SDS011;8142;48.242;11.644;2023-07-24T08:02:31;11.90;;;7.93;;
16075;SDS011;8142;48.242;11.644;2023-07-24T08:04:58;13.07;;;7.53;;
16075;SDS011;8142;48.242;11.644;2023-07-24T08:07:24;11.23;;;7.93;;
16075;SDS011;8142;48.242;11.644;2023-07-24T08:09:50;12.10;;;8.20;;
16075;SDS011;8142;48.242;11.644;2023-07-24T08:12:16;11.33;;;7.57;;
16075;SDS011;8142;48.242;11.644;2023-07-24T08:14:42;13.50;;;8.17;;
16075;SDS011;8142;48.242;11.644;2023-07-24T08:17:08;11.53;;;7.90;;
16075;SDS011;8142;48.242;11.644;2023-07-24T08:19:34;12.87;;;8.10;;
16075;SDS011;8142;48.242;11.644;2023-07-24T08:21:59;14.07;;;8.13;;
16075;SDS011;8142;48.242;11.644;2023-07-24T08:24:25;12.40;;;8.40;;
16075;SDS011;8142;48.242;11.644;2023-07-24T08:26:51;11.27;;;7.53;;
16075;SDS011;8142;48.242;11.644;2023-07-24T08:29:17;11.33;;;7.73;;
16075;SDS011;8142;48.242;11.644;2023-07-24T08:31:43;11.23;;;7.67;;
16075;SDS011;8142;48.242;11.644;2023-07-24T08:34:09;11.50;;;7.17;;
16075;SDS011;8142;48.242;11.644;2023-07-24T08:36:34;11.47;;;7.37;;
16075;SDS011;8142;48.242;11.644;2023-07-24T08:39:02;9.03;;;6.50;;
16075;SDS011;8142;48.242;11.644;2023-07-24T08:41:28;11.17;;;7.23;;
16075;SDS011;8142;48.242;11.644;2023-07-24T08:43:55;11.17;;;7.20;;
16075;SDS011;8142;48.242;11.644;2023-07-24T08:46:20;10.63;;;6.97;;
16075;SDS011;8142;48.242;11.644;2023-07-24T08:48:47;9.33;;;6.67;;
16075;SDS011;8142;48.242;11.644;2023-07-24T08:51:14;10.70;;;7.00;;
16075;SDS011;8142;48.242;11.644;2023-07-24T08:53:49;9.70;;;6.90;;
16075;SDS011;8142;48.242;11.644;2023-07-24T08:56:16;12.93;;;6.87;;
16075;SDS011;8142;48.242;11.644;2023-07-24T08:58:42;11.03;;;7.27;;
16075;SDS011;8142;48.242;11.644;2023-07-24T09:01:08;11.47;;;6.60;;
16075;SDS011;8142;48.242;11.644;2023-07-24T09:03:34;10.10;;;6.70;;
16075;SDS011;8142;48.242;11.644;2023-07-24T09:06:00;9.30;;;6.40;;
16075;SDS011;8142;48.242;11.644;2023-07-24T09:11:09;10.23;;;7.10;;
16075;SDS011;8142;48.242;11.644;2023-07-24T09:13:36;9.80;;;7.07;;
16075;SDS011;8142;48.242;11.644;2023-07-24T09:16:03;11.23;;;6.90;;
16075;SDS011;8142;48.242;11.644;2023-07-24T09:18:42;10.03;;;6.77;;
16075;SDS011;8142;48.242;11.644;2023-07-24T09:21:08;9.50;;;6.83;;
16075;SDS011;8142;48.242;11.644;2023-07-24T09:23:37;11.53;;;7.27;;
16075;SDS011;8142;48.242;11.644;2023-07-24T09:26:08;11.47;;;6.70;;
16075;SDS011;8142;48.242;11.644;2023-07-24T09:28:34;9.93;;;7.07;;
16075;SDS011;8142;48.242;11.644;2023-07-24T09:31:01;10.57;;;6.97;;
16075;SDS011;8142;48.242;11.644;2023-07-24T09:33:46;9.47;;;6.50;;
16075;SDS011;8142;48.242;11.644;2023-07-24T09:36:12;9.67;;;6.73;;
16075;SDS011;8142;48.242;11.644;2023-07-24T09:38:38;9.93;;;6.90;;
16075;SDS011;8142;48.242;11.644;2023-07-24T09:41:06;9.93;;;6.67;;
16075;SDS011;8142;48.242;11.644;2023-07-24T09:43:32;11.60;;;6.73;;
16075;SDS011;8142;48.242;11.644;2023-07-24T09:46:00;10.43;;;6.73;;
16075;SDS011;8142;48.242;11.644;2023-07-24T09:48:28;10.30;;;6.83;;
16075;SDS011;8142;48.242;11.644;2023-07-24T09:50:54;11.17;;;6.53;;
16075;SDS011;8142;48.242;11.644;2023-07-24T09:58:33;11.00;;;6.50;;
16075;SDS011;8142;48.242;11.644;2023-07-24T10:01:01;10.57;;;6.63;;
16075;SDS011;8142;48.242;11.644;2023-07-24T10:03:29;7.93;;;6.00;;
16075;SDS011;8142;48.242;11.644;2023-07-24T10:05:56;9.30;;;5.97;;
16075;SDS011;8142;48.242;11.644;2023-07-24T10:08:22;7.73;;;5.77;;
16075;SDS011;8142;48.242;11.644;2023-07-24T10:10:49;7.80;;;5.50;;
16075;SDS011;8142;48.242;11.644;2023-07-24T10:13:17;8.43;;;5.90;;
16075;SDS011;8142;48.242;11.644;2023-07-24T10:15:45;8.43;;;5.57;;
16075;SDS011;8142;48.242;11.644;2023-07-24T10:18:14;7.87;;;5.17;;
16075;SDS011;8142;48.242;11.644;2023-07-24T10:20:42;8.20;;;6.00;;
16075;SDS011;8142;48.242;11.644;2023-07-24T10:23:09;7.07;;;5.33;;
16075;SDS011;8142;48.242;11.644;2023-07-24T10:25:40;7.97;;;5.90;;
16075;SDS011;8142;48.242;11.644;2023-07-24T10:28:10;7.73;;;5.57;;
16075;SDS011;8142;48.242;11.644;2023-07-24T10:30:38;9.10;;;5.90;;
16075;SDS011;8142;48.242;11.644;2023-07-24T10:33:18;7.97;;;6.00;;
16075;SDS011;8142;48.242;11.644;2023-07-24T10:35:54;10.27;;;5.83;;
16075;SDS011;8142;48.242;11.644;2023-07-24T10:38:33;9.10;;;5.37;;
16075;SDS011;8142;48.242;11.644;2023-07-24T10:41:01;8.90;;;5.37;;
16075;SDS011;8142;48.242;11.644;2023-07-24T10:43:28;8.93;;;5.50;;
16075;SDS011;8142;48.242;11.644;2023-07-24T10:46:04;8.23;;;5.20;;
16075;SDS011;8142;48.242;11.644;2023-07-24T10:48:30;6.53;;;4.93;;
16075;SDS011;8142;48.242;11.644;2023-07-24T10:50:56;7.73;;;5.43;;
16075;SDS011;8142;48.242;11.644;2023-07-24T10:53:22;8.13;;;5.60;;
16075;SDS011;8142;48.242;11.644;2023-07-24T10:55:50;6.70;;;4.93;;
16075;SDS011;8142;48.242;11.644;2023-07-24T10:58:16;6.33;;;4.50;;
16075;SDS011;8142;48.242;11.644;2023-07-24T11:00:43;8.13;;;5.13;;
16075;SDS011;8142;48.242;11.644;2023-07-24T11:03:10;7.40;;;5.43;;
16075;SDS011;8142;48.242;11.644;2023-07-24T11:05:40;8.07;;;5.20;;
16075;SDS011;8142;48.242;11.644;2023-07-24T11:08:11;6.97;;;4.97;;
16075;SDS011;8142;48.242;11.644;2023-07-24T11:10:47;6.63;;;4.80;;
16075;SDS011;8142;48.242;11.644;2023-07-24T11:13:15;6.67;;;4.53;;
16075;SDS011;8142;48.242;11.644;2023-07-24T11:15:41;6.43;;;4.60;;
16075;SDS011;8142;48.242;11.644;2023-07-24T11:18:08;8.37;;;4.93;;
16075;SDS011;8142;48.242;11.644;2023-07-24T11:20:44;6.40;;;4.80;;
16075;SDS011;8142;48.242;11.644;2023-07-24T11:23:12;6.77;;;4.50;;
16075;SDS011;8142;48.242;11.644;2023-07-24T11:25:38;8.00;;;4.87;;
16075;SDS011;8142;48.242;11.644;2023-07-24T11:28:05;5.63;;;4.23;;
16075;SDS011;8142;48.242;11.644;2023-07-24T11:30:32;7.57;;;3.73;;
16075;SDS011;8142;48.242;11.644;2023-07-24T11:33:00;4.93;;;4.00;;
16075;SDS011;8142;48.242;11.644;2023-07-24T11:35:27;5.37;;;4.23;;
16075;SDS011;8142;48.242;11.644;2023-07-24T11:37:53;5.00;;;4.13;;
16075;SDS011;8142;48.242;11.644;2023-07-24T11:40:19;5.60;;;4.07;;
16075;SDS011;8142;48.242;11.644;2023-07-24T11:42:46;5.23;;;4.30;;
16075;SDS011;8142;48.242;11.644;2023-07-24T11:45:13;5.60;;;4.00;;
16075;SDS011;8142;48.242;11.644;2023-07-24T11:47:43;5.47;;;4.20;;
16075;SDS011;8142;48.242;11.644;2023-07-24T11:50:10;5.13;;;3.90;;
16075;SDS011;8142;48.242;11.644;2023-07-24T11:52:37;6.30;;;4.40;;
16075;SDS011;8142;48.242;11.644;2023-07-24T11:55:04;6.33;;;4.13;;
16075;SDS011;8142;48.242;11.644;2023-07-24T11:57:31;4.67;;;3.97;;
16075;SDS011;8142;48.242;11.644;2023-07-24T11:59:57;5.00;;;4.20;;
16075;SDS011;8142;48.242;11.644;2023-07-24T12:02:26;5.67;;;3.97;;
16075;SDS011;8142;48.242;11.644;2023-07-24T12:04:53;6.23;;;4.10;;
16075;SDS011;8142;48.242;11.644;2023-07-24T12:07:34;5.77;;;4.17;;
16075;SDS011;8142;48.242;11.644;2023-07-24T12:10:02;5.23;;;3.93;;
16075;SDS011;8142;48.242;11.644;2023-07-24T12:12:39;5.73;;;4.00;;
16075;SDS011;8142;48.242;11.644;2023-07-24T12:15:09;6.37;;;4.33;;
16075;SDS011;8142;48.242;11.644;2023-07-24T12:17:36;6.27;;;4.30;;
16075;SDS011;8142;48.242;11.644;2023-07-24T12:20:02;7.20;;;4.70;;
16075;SDS011;8142;48.242;11.644;2023-07-24T12:22:31;8.37;;;4.80;;
16075;SDS011;8142;48.242;11.644;2023-07-24T12:24:57;7.07;;;5.10;;
16075;SDS011;8142;48.242;11.644;2023-07-24T12:27:23;7.50;;;4.47;;
16075;SDS011;8142;48.242;11.644;2023-07-24T12:29:51;7.63;;;4.47;;
16075;SDS011;8142;48.242;11.644;2023-07-24T12:32:17;9.23;;;5.07;;
16075;SDS011;8142;48.242;11.644;2023-07-24T12:34:44;6.30;;;4.30;;
16075;SDS011;8142;48.242;11.644;2023-07-24T12:37:12;13.00;;;4.90;;
16075;SDS011;8142;48.242;11.644;2023-07-24T12:39:38;9.50;;;5.70;;
16075;SDS011;8142;48.242;11.644;2023-07-24T12:42:04;8.97;;;5.70;;
16075;SDS011;8142;48.242;11.644;2023-07-24T12:44:31;7.80;;;5.57;;
16075;SDS011;8142;48.242;11.644;2023-07-24T12:46:58;7.17;;;5.43;;
16075;SDS011;8142;48.242;11.644;2023-07-24T12:49:24;7.23;;;5.27;;
16075;SDS011;8142;48.242;11.644;2023-07-24T12:51:50;7.77;;;5.17;;
16075;SDS011;8142;48.242;11.644;2023-07-24T12:54:16;8.13;;;5.40;;
16075;SDS011;8142;48.242;11.644;2023-07-24T12:56:43;7.90;;;4.97;;
16075;SDS011;8142;48.242;11.644;2023-07-24T12:59:09;7.33;;;5.33;;
16075;SDS011;8142;48.242;11.644;2023-07-24T13:01:34;9.57;;;5.23;;
16075;SDS011;8142;48.242;11.644;2023-07-24T13:04:00;6.67;;;4.60;;
16075;SDS011;8142;48.242;11.644;2023-07-24T13:06:26;6.27;;;4.33;;
16075;SDS011;8142;48.242;11.644;2023-07-24T13:08:52;7.30;;;4.47;;
16075;SDS011;8142;48.242;11.644;2023-07-24T13:11:18;7.03;;;4.43;;
16075;SDS011;8142;48.242;11.644;2023-07-24T13:13:44;5.97;;;4.37;;
16075;SDS011;8142;48.242;11.644;2023-07-24T13:16:10;6.10;;;4.73;;
16075;SDS011;8142;48.242;11.644;2023-07-24T13:18:35;6.03;;;4.70;;
16075;SDS011;8142;48.242;11.644;2023-07-24T13:21:01;7.20;;;4.57;;
16075;SDS011;8142;48.242;11.644;2023-07-24T13:23:27;6.27;;;4.53;;
16075;SDS011;8142;48.242;11.644;2023-07-24T13:25:53;5.50;;;4.17;;
16075;SDS011;8142;48.242;11.644;2023-07-24T13:28:19;7.10;;;4.33;;
16075;SDS011;8142;48.242;11.644;2023-07-24T13:30:45;5.40;;;4.50;;
16075;SDS011;8142;48.242;11.644;2023-07-24T13:33:11;7.03;;;4.80;;
16075;SDS011;8142;48.242;11.644;2023-07-24T13:35:38;5.03;;;3.87;;
16075;SDS011;8142;48.242;11.644;2023-07-24T13:38:03;6.80;;;4.33;;
16075;SDS011;8142;48.242;11.644;2023-07-24T13:40:29;8.23;;;4.90;;
16075;SDS011;8142;48.242;11.644;2023-07-24T13:42:55;8.17;;;5.00;;
16075;SDS011;8142;48.242;11.644;2023-07-24T13:45:21;7.37;;;4.70;;
16075;SDS011;8142;48.242;11.644;2023-07-24T13:47:47;6.60;;;4.60;;
16075;SDS011;8142;48.242;11.644;2023-07-24T13:50:13;7.80;;;4.87;;
16075;SDS011;8142;48.242;11.644;2023-07-24T13:52:39;7.20;;;5.07;;
16075;SDS011;8142;48.242;11.644;2023-07-24T13:55:05;7.50;;;4.50;;
16075;SDS011;8142;48.242;11.644;2023-07-24T13:57:31;6.43;;;4.77;;
16075;SDS011;8142;48.242;11.644;2023-07-24T13:59:57;6.90;;;4.50;;
16075;SDS011;8142;48.242;11.644;2023-07-24T14:02:23;8.27;;;4.97;;
16075;SDS011;8142;48.242;11.644;2023-07-24T14:04:48;6.80;;;4.80;;
16075;SDS011;8142;48.242;11.644;2023-07-24T14:07:14;7.00;;;4.83;;
16075;SDS011;8142;48.242;11.644;2023-07-24T14:09:40;7.33;;;4.80;;
16075;SDS011;8142;48.242;11.644;2023-07-24T14:12:06;6.30;;;4.70;;
16075;SDS011;8142;48.242;11.644;2023-07-24T14:14:32;6.43;;;4.73;;
16075;SDS011;8142;48.242;11.644;2023-07-24T14:16:58;6.37;;;4.47;;
16075;SDS011;8142;48.242;11.644;2023-07-24T14:19:24;6.57;;;4.90;;
16075;SDS011;8142;48.242;11.644;2023-07-24T14:21:50;6.20;;;4.67;;
16075;SDS011;8142;48.242;11.644;2023-07-24T14:24:16;5.27;;;4.17;;
16075;SDS011;8142;48.242;11.644;2023-07-24T14:26:42;6.10;;;4.43;;
16075;SDS011;8142;48.242;11.644;2023-07-24T14:29:10;5.83;;;4.77;;
16075;SDS011;8142;48.242;11.644;2023-07-24T14:31:36;7.07;;;4.80;;
16075;SDS011;8142;48.242;11.644;2023-07-24T14:34:03;5.43;;;3.97;;
16075;SDS011;8142;48.242;11.644;2023-07-24T14:36:29;6.00;;;4.47;;
16075;SDS011;8142;48.242;11.644;2023-07-24T14:39:02;6.50;;;4.43;;
16075;SDS011;8142;48.242;11.644;2023-07-24T14:41:28;4.53;;;3.80;;
16075;SDS011;8142;48.242;11.644;2023-07-24T14:43:54;5.87;;;4.20;;
16075;SDS011;8142;48.242;11.644;2023-07-24T14:46:20;6.03;;;4.33;;
16075;SDS011;8142;48.242;11.644;2023-07-24T14:48:46;5.93;;;4.43;;